createdAt,value
2017-07-23T00:07:39.000Z,48.825
2017-07-23T00:17:39.000Z,48.335
2017-07-23T00:27:39.000Z,48.857
2017-07-23T00:37:39.000Z,48.646
2017-07-23T00:47:39.000Z,48.309
2017-07-23T00:57:39.000Z,48.581
2017-07-23T01:07:39.000Z,48.602
2017-07-23T01:17:39.000Z,48.434
2017-07-23T01:27:39.000Z,48.502
2017-07-23T01:37:40.000Z,48.463
2017-07-23T01:47:39.000Z,48.786
2017-07-23T01:57:39.000Z,48.608
2017-07-23T02:07:39.000Z,48.674
2017-07-23T02:17:40.000Z,48.793
2017-07-23T02:27:40.000Z,48.618
2017-07-23T02:37:40.000Z,48.646
2017-07-23T02:47:40.000Z,49.204
2017-07-23T02:57:41.000Z,49.395
2017-07-23T03:07:40.000Z,48.995
2017-07-23T03:17:40.000Z,49.136
2017-07-23T03:27:40.000Z,49.768
2017-07-23T03:37:40.000Z,49.442
2017-07-23T03:47:40.000Z,49.516
2017-07-23T03:57:40.000Z,49.782
2017-07-23T04:07:40.000Z,50.226
2017-07-23T04:17:40.000Z,50.269
2017-07-23T04:27:40.000Z,50.382
2017-07-23T04:37:40.000Z,50.218
2017-07-23T04:47:40.000Z,50.387
2017-07-23T04:57:40.000Z,49.959
2017-07-23T05:07:40.000Z,50.53
2017-07-23T05:17:40.000Z,50.505
2017-07-23T05:27:40.000Z,50.343
2017-07-23T05:37:40.000Z,50.102
2017-07-23T05:47:40.000Z,49.936
2017-07-23T05:57:40.000Z,49.766
2017-07-23T06:07:40.000Z,49.124
2017-07-23T06:17:40.000Z,48.924
2017-07-23T06:27:40.000Z,48.396
2017-07-23T06:37:40.000Z,48.457
2017-07-23T06:47:40.000Z,48.577
2017-07-23T06:57:40.000Z,48.477
2017-07-23T07:07:41.000Z,48.081
2017-07-23T07:17:40.000Z,48.443
2017-07-23T07:27:40.000Z,47.26
2017-07-23T07:37:40.000Z,46.991
2017-07-23T07:47:40.000Z,45.992
2017-07-23T07:57:40.000Z,45.268
2017-07-23T08:07:40.000Z,43.889
2017-07-23T08:17:40.000Z,43.634
2017-07-23T08:27:40.000Z,43.186
2017-07-23T08:37:40.000Z,41.913
2017-07-23T08:47:40.000Z,42.568
2017-07-23T08:57:40.000Z,42.144
2017-07-23T09:07:40.000Z,41.403
2017-07-23T09:17:40.000Z,41.433
2017-07-23T09:27:40.000Z,41.222
2017-07-23T09:37:40.000Z,42.091
2017-07-23T09:47:40.000Z,42.472
2017-07-23T09:57:40.000Z,42.252
2017-07-23T10:07:40.000Z,42.353
2017-07-23T10:17:40.000Z,42.166
2017-07-23T10:27:41.000Z,42.375
2017-07-23T10:37:41.000Z,42.44
2017-07-23T10:47:41.000Z,42.82
2017-07-23T10:57:41.000Z,43.369
2017-07-23T11:07:41.000Z,42.865
2017-07-23T11:17:41.000Z,43.642
2017-07-23T11:27:41.000Z,42.757
2017-07-23T11:37:41.000Z,42.675
2017-07-23T11:47:41.000Z,40.858
2017-07-23T12:07:41.000Z,39.833
2017-07-23T12:17:41.000Z,39.882
2017-07-23T12:27:41.000Z,39.669
2017-07-23T12:47:42.000Z,37.371
2017-07-23T12:57:41.000Z,36.793
2017-07-23T13:07:41.000Z,37.014
2017-07-23T13:17:41.000Z,36.912
2017-07-23T13:27:41.000Z,36.829
2017-07-23T13:37:41.000Z,36.216
2017-07-23T13:47:41.000Z,36.409
2017-07-23T13:57:41.000Z,36.219
2017-07-23T14:07:41.000Z,37.24
2017-07-23T14:17:41.000Z,38.122
2017-07-23T14:27:41.000Z,38.518
2017-07-23T14:37:41.000Z,38.4
2017-07-23T14:47:41.000Z,38.541
2017-07-23T14:57:41.000Z,38.683
2017-07-23T15:07:41.000Z,38.149
2017-07-23T15:17:41.000Z,37.377
2017-07-23T15:27:41.000Z,37.412
2017-07-23T15:37:41.000Z,37.796
2017-07-23T15:47:41.000Z,37.87
2017-07-23T15:57:41.000Z,38.441
2017-07-23T16:07:41.000Z,37.682
2017-07-23T16:17:41.000Z,38.34
2017-07-23T16:27:41.000Z,38.487
2017-07-23T16:37:41.000Z,39.397
2017-07-23T16:47:41.000Z,39.518
2017-07-23T16:57:41.000Z,39.783
2017-07-23T17:07:41.000Z,40.396
2017-07-23T17:17:41.000Z,40.901
2017-07-23T17:27:41.000Z,41.496
2017-07-23T17:37:41.000Z,42.004
2017-07-23T17:47:41.000Z,42.285
2017-07-23T17:57:41.000Z,42.682
2017-07-23T18:07:41.000Z,43.027
2017-07-23T18:17:41.000Z,43.181
2017-07-23T18:27:44.000Z,43.566
2017-07-23T18:37:41.000Z,43.733
2017-07-23T18:47:42.000Z,44.083
2017-07-23T18:57:42.000Z,44.28
2017-07-23T19:07:42.000Z,44.487
2017-07-23T19:17:42.000Z,44.341
2017-07-23T19:27:42.000Z,44.552
2017-07-23T19:37:42.000Z,44.575
2017-07-23T19:47:42.000Z,44.814
2017-07-23T19:57:42.000Z,45.111
2017-07-23T20:07:42.000Z,45.463
2017-07-23T20:17:42.000Z,45.548
2017-07-23T20:27:42.000Z,46.605
2017-07-23T20:37:42.000Z,47.885
2017-07-23T20:47:42.000Z,48.989
2017-07-23T20:57:42.000Z,47.582
2017-07-23T21:07:42.000Z,47.65
2017-07-23T21:17:42.000Z,47.585
2017-07-23T21:27:42.000Z,47.511
2017-07-23T21:37:42.000Z,47.305
2017-07-23T21:47:42.000Z,48.579
2017-07-23T21:57:42.000Z,48.541
2017-07-23T22:07:42.000Z,47.859
2017-07-23T22:17:42.000Z,47.578
2017-07-23T22:27:42.000Z,47.808
2017-07-23T22:37:42.000Z,48.167
2017-07-23T22:47:42.000Z,47.712
2017-07-23T22:57:42.000Z,47.855
2017-07-23T23:07:42.000Z,47.693
2017-07-23T23:17:42.000Z,47.591
2017-07-23T23:27:42.000Z,47.138
2017-07-23T23:37:42.000Z,47.148
2017-07-23T23:47:42.000Z,47
2017-07-23T23:57:42.000Z,46.835
